sensor_id;sensor_type;location;lat;lon;timestamp;temperature;humidity
20041;DHT22;10181;48.072;9.884;2023-06-01T00:00:33;12.20;99.90
20041;DHT22;10181;48.072;9.884;2023-06-01T00:02:59;12.10;99.90
20041;DHT22;10181;48.072;9.884;2023-06-01T00:05:24;12.10;99.90
20041;DHT22;10181;48.072;9.884;2023-06-01T00:07:50;12.10;99.90
20041;DHT22;10181;48.072;9.884;2023-06-01T00:10:16;12.10;99.90
20041;DHT22;10181;48.072;9.884;2023-06-01T00:12:42;12.10;99.90
20041;DHT22;10181;48.072;9.884;2023-06-01T00:15:08;12.10;99.90
20041;DHT22;10181;48.072;9.884;2023-06-01T00:17:34;12.10;99.90
20041;DHT22;10181;48.072;9.884;2023-06-01T00:20:00;12.00;99.90
20041;DHT22;10181;48.072;9.884;2023-06-01T00:22:32;12.00;99.90
20041;DHT22;10181;48.072;9.884;2023-06-01T00:25:00;12.00;99.90
20041;DHT22;10181;48.072;9.884;2023-06-01T00:27:25;12.00;99.90
20041;DHT22;10181;48.072;9.884;2023-06-01T00:29:51;12.00;99.90
20041;DHT22;10181;48.072;9.884;2023-06-01T00:32:17;12.10;99.90
20041;DHT22;10181;48.072;9.884;2023-06-01T00:34:42;12.10;99.90
20041;DHT22;10181;48.072;9.884;2023-06-01T00:37:08;12.20;99.90
20041;DHT22;10181;48.072;9.884;2023-06-01T00:39:34;12.20;99.90
20041;DHT22;10181;48.072;9.884;2023-06-01T00:41:59;12.30;99.90
20041;DHT22;10181;48.072;9.884;2023-06-01T00:44:25;12.20;99.90
20041;DHT22;10181;48.072;9.884;2023-06-01T00:46:51;12.20;99.90
20041;DHT22;10181;48.072;9.884;2023-06-01T00:49:18;12.10;99.90
20041;DHT22;10181;48.072;9.884;2023-06-01T00:51:44;12.10;99.90
20041;DHT22;10181;48.072;9.884;2023-06-01T00:54:10;12.00;99.90
20041;DHT22;10181;48.072;9.884;2023-06-01T00:56:37;11.90;99.90
20041;DHT22;10181;48.072;9.884;2023-06-01T00:59:03;11.90;99.90
20041;DHT22;10181;48.072;9.884;2023-06-01T01:01:28;11.80;99.90
20041;DHT22;10181;48.072;9.884;2023-06-01T01:03:54;11.80;99.90
20041;DHT22;10181;48.072;9.884;2023-06-01T01:11:33;11.50;99.90
20041;DHT22;10181;48.072;9.884;2023-06-01T01:14:39;11.30;99.90
20041;DHT22;10181;48.072;9.884;2023-06-01T01:17:26;11.10;99.90
20041;DHT22;10181;48.072;9.884;2023-06-01T01:20:02;10.90;99.90
20041;DHT22;10181;48.072;9.884;2023-06-01T01:25:21;10.50;99.90
20041;DHT22;10181;48.072;9.884;2023-06-01T01:28:56;10.30;99.90
20041;DHT22;10181;48.072;9.884;2023-06-01T01:30:57;10.20;99.90
20041;DHT22;10181;48.072;9.884;2023-06-01T01:33:25;10.10;99.90
20041;DHT22;10181;48.072;9.884;2023-06-01T01:35:51;10.10;99.90
20041;DHT22;10181;48.072;9.884;2023-06-01T01:38:18;10.20;99.90
20041;DHT22;10181;48.072;9.884;2023-06-01T01:40:43;10.20;99.90
20041;DHT22;10181;48.072;9.884;2023-06-01T01:43:09;10.20;99.90
20041;DHT22;10181;48.072;9.884;2023-06-01T01:45:35;10.20;99.90
20041;DHT22;10181;48.072;9.884;2023-06-01T01:48:20;10.20;99.90
20041;DHT22;10181;48.072;9.884;2023-06-01T01:50:51;10.30;99.90
20041;DHT22;10181;48.072;9.884;2023-06-01T01:53:17;10.30;99.90
20041;DHT22;10181;48.072;9.884;2023-06-01T01:55:46;10.30;99.90
20041;DHT22;10181;48.072;9.884;2023-06-01T01:58:14;10.20;99.90
20041;DHT22;10181;48.072;9.884;2023-06-01T02:00:41;10.20;99.90
20041;DHT22;10181;48.072;9.884;2023-06-01T02:03:15;10.20;99.90
20041;DHT22;10181;48.072;9.884;2023-06-01T02:05:41;10.20;99.90
20041;DHT22;10181;48.072;9.884;2023-06-01T02:08:06;10.10;99.90
20041;DHT22;10181;48.072;9.884;2023-06-01T02:10:32;10.00;99.90
20041;DHT22;10181;48.072;9.884;2023-06-01T02:12:57;10.00;99.90
20041;DHT22;10181;48.072;9.884;2023-06-01T02:15:23;9.90;99.90
20041;DHT22;10181;48.072;9.884;2023-06-01T02:17:48;9.80;99.90
20041;DHT22;10181;48.072;9.884;2023-06-01T02:20:14;9.70;99.90
20041;DHT22;10181;48.072;9.884;2023-06-01T02:22:40;9.50;99.90
20041;DHT22;10181;48.072;9.884;2023-06-01T02:25:06;9.40;99.90
20041;DHT22;10181;48.072;9.884;2023-06-01T02:27:31;9.40;99.90
20041;DHT22;10181;48.072;9.884;2023-06-01T02:29:57;9.30;99.90
20041;DHT22;10181;48.072;9.884;2023-06-01T02:32:22;9.30;99.90
20041;DHT22;10181;48.072;9.884;2023-06-01T02:34:48;9.40;99.90
20041;DHT22;10181;48.072;9.884;2023-06-01T02:37:14;9.40;99.90
20041;DHT22;10181;48.072;9.884;2023-06-01T02:39:40;9.30;99.90
20041;DHT22;10181;48.072;9.884;2023-06-01T02:42:05;9.40;99.90
20041;DHT22;10181;48.072;9.884;2023-06-01T02:44:31;9.30;99.90
20041;DHT22;10181;48.072;9.884;2023-06-01T02:46:57;9.20;99.90
20041;DHT22;10181;48.072;9.884;2023-06-01T02:49:22;9.20;99.90
20041;DHT22;10181;48.072;9.884;2023-06-01T02:51:48;9.20;99.90
20041;DHT22;10181;48.072;9.884;2023-06-01T02:54:13;9.20;99.90
20041;DHT22;10181;48.072;9.884;2023-06-01T02:56:39;9.00;99.90
20041;DHT22;10181;48.072;9.884;2023-06-01T02:59:04;9.00;99.90
20041;DHT22;10181;48.072;9.884;2023-06-01T03:01:31;8.90;99.90
20041;DHT22;10181;48.072;9.884;2023-06-01T03:04:01;8.80;99.90
20041;DHT22;10181;48.072;9.884;2023-06-01T03:06:30;8.80;99.90
20041;DHT22;10181;48.072;9.884;2023-06-01T03:09:03;8.80;99.90
20041;DHT22;10181;48.072;9.884;2023-06-01T03:11:29;8.80;99.90
20041;DHT22;10181;48.072;9.884;2023-06-01T03:13:55;8.90;99.90
20041;DHT22;10181;48.072;9.884;2023-06-01T03:16:23;8.90;99.90
20041;DHT22;10181;48.072;9.884;2023-06-01T03:18:48;9.00;99.90
20041;DHT22;10181;48.072;9.884;2023-06-01T03:21:14;9.10;99.90
20041;DHT22;10181;48.072;9.884;2023-06-01T03:23:41;9.10;99.90
20041;DHT22;10181;48.072;9.884;2023-06-01T03:26:10;9.00;99.90
20041;DHT22;10181;48.072;9.884;2023-06-01T03:28:38;8.90;99.90
20041;DHT22;10181;48.072;9.884;2023-06-01T03:31:04;8.90;99.90
20041;DHT22;10181;48.072;9.884;2023-06-01T03:33:29;8.90;99.90
20041;DHT22;10181;48.072;9.884;2023-06-01T03:35:55;8.90;99.90
20041;DHT22;10181;48.072;9.884;2023-06-01T03:38:22;8.80;99.90
20041;DHT22;10181;48.072;9.884;2023-06-01T03:40:47;8.80;99.90
20041;DHT22;10181;48.072;9.884;2023-06-01T03:43:14;8.80;99.90
20041;DHT22;10181;48.072;9.884;2023-06-01T03:45:40;8.80;99.90
20041;DHT22;10181;48.072;9.884;2023-06-01T03:48:06;8.80;99.90
20041;DHT22;10181;48.072;9.884;2023-06-01T03:50:31;8.80;99.90
20041;DHT22;10181;48.072;9.884;2023-06-01T03:52:57;8.90;99.90
20041;DHT22;10181;48.072;9.884;2023-06-01T03:55:23;9.00;99.90
20041;DHT22;10181;48.072;9.884;2023-06-01T03:57:48;9.10;99.90
20041;DHT22;10181;48.072;9.884;2023-06-01T04:00:14;9.30;99.90
20041;DHT22;10181;48.072;9.884;2023-06-01T04:02:51;9.40;99.90
20041;DHT22;10181;48.072;9.884;2023-06-01T04:05:18;9.60;99.90
20041;DHT22;10181;48.072;9.884;2023-06-01T04:07:46;9.70;99.90
20041;DHT22;10181;48.072;9.884;2023-06-01T04:10:12;9.90;99.90
20041;DHT22;10181;48.072;9.884;2023-06-01T04:12:40;10.00;99.90
20041;DHT22;10181;48.072;9.884;2023-06-01T04:15:07;10.20;99.90
20041;DHT22;10181;48.072;9.884;2023-06-01T04:17:36;10.30;99.90
20041;DHT22;10181;48.072;9.884;2023-06-01T04:20:02;10.40;99.90
20041;DHT22;10181;48.072;9.884;2023-06-01T04:22:31;10.40;99.90
20041;DHT22;10181;48.072;9.884;2023-06-01T04:24:57;10.20;99.90
20041;DHT22;10181;48.072;9.884;2023-06-01T04:27:23;10.00;99.90
20041;DHT22;10181;48.072;9.884;2023-06-01T04:29:50;9.80;99.90
20041;DHT22;10181;48.072;9.884;2023-06-01T04:32:15;9.70;99.90
20041;DHT22;10181;48.072;9.884;2023-06-01T04:34:47;9.60;99.90
20041;DHT22;10181;48.072;9.884;2023-06-01T04:37:16;9.70;99.90
20041;DHT22;10181;48.072;9.884;2023-06-01T04:39:45;9.70;99.90
20041;DHT22;10181;48.072;9.884;2023-06-01T04:42:14;9.80;99.90
20041;DHT22;10181;48.072;9.884;2023-06-01T04:44:43;9.90;99.90
20041;DHT22;10181;48.072;9.884;2023-06-01T04:47:08;9.90;99.90
20041;DHT22;10181;48.072;9.884;2023-06-01T04:49:34;9.90;99.90
20041;DHT22;10181;48.072;9.884;2023-06-01T04:52:02;10.00;99.90
20041;DHT22;10181;48.072;9.884;2023-06-01T04:54:27;10.10;99.90
20041;DHT22;10181;48.072;9.884;2023-06-01T04:56:53;10.40;99.90
20041;DHT22;10181;48.072;9.884;2023-06-01T04:59:19;10.70;99.90
20041;DHT22;10181;48.072;9.884;2023-06-01T05:01:45;11.00;99.90
20041;DHT22;10181;48.072;9.884;2023-06-01T05:04:10;11.40;99.90
20041;DHT22;10181;48.072;9.884;2023-06-01T05:06:36;11.70;99.90
20041;DHT22;10181;48.072;9.884;2023-06-01T05:09:01;11.90;99.90
20041;DHT22;10181;48.072;9.884;2023-06-01T05:11:30;12.20;99.90
20041;DHT22;10181;48.072;9.884;2023-06-01T05:13:56;12.40;99.90
20041;DHT22;10181;48.072;9.884;2023-06-01T05:16:27;12.60;99.90
20041;DHT22;10181;48.072;9.884;2023-06-01T05:18:53;12.80;99.90
20041;DHT22;10181;48.072;9.884;2023-06-01T05:21:19;12.90;99.90
20041;DHT22;10181;48.072;9.884;2023-06-01T05:23:44;13.10;99.90
20041;DHT22;10181;48.072;9.884;2023-06-01T05:26:10;13.30;99.90
20041;DHT22;10181;48.072;9.884;2023-06-01T05:28:36;13.40;99.90
20041;DHT22;10181;48.072;9.884;2023-06-01T05:31:02;13.60;99.90
20041;DHT22;10181;48.072;9.884;2023-06-01T05:33:28;13.70;99.90
20041;DHT22;10181;48.072;9.884;2023-06-01T05:35:54;13.80;99.90
20041;DHT22;10181;48.072;9.884;2023-06-01T05:38:20;13.90;99.90
20041;DHT22;10181;48.072;9.884;2023-06-01T05:40:46;14.00;99.90
20041;DHT22;10181;48.072;9.884;2023-06-01T05:43:11;14.10;99.90
20041;DHT22;10181;48.072;9.884;2023-06-01T05:45:37;14.10;99.90
20041;DHT22;10181;48.072;9.884;2023-06-01T05:48:03;14.10;99.90
20041;DHT22;10181;48.072;9.884;2023-06-01T05:50:28;14.10;99.90
20041;DHT22;10181;48.072;9.884;2023-06-01T05:52:54;14.10;99.90
20041;DHT22;10181;48.072;9.884;2023-06-01T05:55:20;14.20;99.90
20041;DHT22;10181;48.072;9.884;2023-06-01T05:57:46;14.40;99.90
20041;DHT22;10181;48.072;9.884;2023-06-01T06:00:12;14.50;99.90
20041;DHT22;10181;48.072;9.884;2023-06-01T06:02:39;14.60;99.90
20041;DHT22;10181;48.072;9.884;2023-06-01T06:05:07;14.80;99.90
20041;DHT22;10181;48.072;9.884;2023-06-01T06:07:34;14.90;99.90
20041;DHT22;10181;48.072;9.884;2023-06-01T06:09:59;15.10;99.90
20041;DHT22;10181;48.072;9.884;2023-06-01T06:12:25;15.20;99.90
20041;DHT22;10181;48.072;9.884;2023-06-01T06:14:51;15.40;99.90
20041;DHT22;10181;48.072;9.884;2023-06-01T06:17:16;15.60;99.90
20041;DHT22;10181;48.072;9.884;2023-06-01T06:19:42;15.70;99.90
20041;DHT22;10181;48.072;9.884;2023-06-01T06:22:09;15.80;99.90
20041;DHT22;10181;48.072;9.884;2023-06-01T06:24:35;15.90;99.90
20041;DHT22;10181;48.072;9.884;2023-06-01T06:27:01;16.00;99.90
20041;DHT22;10181;48.072;9.884;2023-06-01T06:29:27;16.10;99.90
20041;DHT22;10181;48.072;9.884;2023-06-01T06:31:53;16.10;99.90
20041;DHT22;10181;48.072;9.884;2023-06-01T06:34:18;16.20;99.90
20041;DHT22;10181;48.072;9.884;2023-06-01T06:36:44;16.30;99.90
20041;DHT22;10181;48.072;9.884;2023-06-01T06:39:10;16.40;99.90
20041;DHT22;10181;48.072;9.884;2023-06-01T06:41:36;16.40;99.90
20041;DHT22;10181;48.072;9.884;2023-06-01T06:44:01;16.50;99.90
20041;DHT22;10181;48.072;9.884;2023-06-01T06:46:27;16.50;99.90
20041;DHT22;10181;48.072;9.884;2023-06-01T06:48:53;16.50;99.90
20041;DHT22;10181;48.072;9.884;2023-06-01T06:51:18;16.60;99.90
20041;DHT22;10181;48.072;9.884;2023-06-01T06:53:44;16.70;99.90
20041;DHT22;10181;48.072;9.884;2023-06-01T06:56:10;16.70;99.90
20041;DHT22;10181;48.072;9.884;2023-06-01T06:58:35;16.80;99.90
20041;DHT22;10181;48.072;9.884;2023-06-01T07:01:01;16.80;99.90
20041;DHT22;10181;48.072;9.884;2023-06-01T07:03:33;17.00;99.90
20041;DHT22;10181;48.072;9.884;2023-06-01T07:05:59;17.10;99.90
20041;DHT22;10181;48.072;9.884;2023-06-01T07:08:25;17.20;99.90
20041;DHT22;10181;48.072;9.884;2023-06-01T07:10:52;17.20;99.90
20041;DHT22;10181;48.072;9.884;2023-06-01T07:13:18;17.20;99.90
20041;DHT22;10181;48.072;9.884;2023-06-01T07:15:46;17.20;99.90
20041;DHT22;10181;48.072;9.884;2023-06-01T07:18:11;17.30;99.90
20041;DHT22;10181;48.072;9.884;2023-06-01T07:20:37;17.30;99.90
20041;DHT22;10181;48.072;9.884;2023-06-01T07:23:02;17.40;99.90
20041;DHT22;10181;48.072;9.884;2023-06-01T07:25:28;17.50;99.90
20041;DHT22;10181;48.072;9.884;2023-06-01T07:27:54;17.60;99.90
20041;DHT22;10181;48.072;9.884;2023-06-01T07:30:21;17.70;99.90
20041;DHT22;10181;48.072;9.884;2023-06-01T07:32:47;17.70;99.90
20041;DHT22;10181;48.072;9.884;2023-06-01T07:35:13;17.70;99.90
20041;DHT22;10181;48.072;9.884;2023-06-01T07:37:39;17.80;99.90
20041;DHT22;10181;48.072;9.884;2023-06-01T07:40:06;17.80;99.90
20041;DHT22;10181;48.072;9.884;2023-06-01T07:42:33;17.80;99.90
20041;DHT22;10181;48.072;9.884;2023-06-01T07:44:58;17.80;99.90
20041;DHT22;10181;48.072;9.884;2023-06-01T07:47:24;17.80;99.90
20041;DHT22;10181;48.072;9.884;2023-06-01T07:49:51;17.90;99.90
20041;DHT22;10181;48.072;9.884;2023-06-01T07:52:17;17.80;99.90
20041;DHT22;10181;48.072;9.884;2023-06-01T07:54:43;17.90;99.90
20041;DHT22;10181;48.072;9.884;2023-06-01T07:57:08;18.10;99.90
20041;DHT22;10181;48.072;9.884;2023-06-01T07:59:34;18.30;99.90
20041;DHT22;10181;48.072;9.884;2023-06-01T08:02:00;18.40;99.90
20041;DHT22;10181;48.072;9.884;2023-06-01T08:04:26;18.60;99.90
20041;DHT22;10181;48.072;9.884;2023-06-01T08:06:52;18.70;99.90
20041;DHT22;10181;48.072;9.884;2023-06-01T08:09:19;18.80;99.90
20041;DHT22;10181;48.072;9.884;2023-06-01T08:11:46;18.80;99.90
20041;DHT22;10181;48.072;9.884;2023-06-01T08:14:13;18.90;99.90
20041;DHT22;10181;48.072;9.884;2023-06-01T08:16:38;19.00;99.90
20041;DHT22;10181;48.072;9.884;2023-06-01T08:19:04;19.10;99.90
20041;DHT22;10181;48.072;9.884;2023-06-01T08:21:30;19.20;99.90
20041;DHT22;10181;48.072;9.884;2023-06-01T08:23:55;19.30;99.90
20041;DHT22;10181;48.072;9.884;2023-06-01T08:26:24;19.30;99.90
20041;DHT22;10181;48.072;9.884;2023-06-01T08:28:51;19.40;99.90
20041;DHT22;10181;48.072;9.884;2023-06-01T08:31:24;19.50;99.90
20041;DHT22;10181;48.072;9.884;2023-06-01T08:33:50;19.50;99.90
20041;DHT22;10181;48.072;9.884;2023-06-01T08:36:17;19.50;99.90
20041;DHT22;10181;48.072;9.884;2023-06-01T08:38:43;19.60;99.90
20041;DHT22;10181;48.072;9.884;2023-06-01T08:41:36;19.70;99.90
20041;DHT22;10181;48.072;9.884;2023-06-01T08:44:08;19.90;99.90
20041;DHT22;10181;48.072;9.884;2023-06-01T08:46:33;20.00;99.90
20041;DHT22;10181;48.072;9.884;2023-06-01T08:49:02;20.10;99.90
20041;DHT22;10181;48.072;9.884;2023-06-01T08:51:32;20.20;99.90
20041;DHT22;10181;48.072;9.884;2023-06-01T08:54:00;20.30;99.90
20041;DHT22;10181;48.072;9.884;2023-06-01T08:56:28;20.30;99.90
20041;DHT22;10181;48.072;9.884;2023-06-01T08:58:54;20.30;99.90
20041;DHT22;10181;48.072;9.884;2023-06-01T09:01:20;20.40;99.90
20041;DHT22;10181;48.072;9.884;2023-06-01T09:03:49;20.40;99.90
20041;DHT22;10181;48.072;9.884;2023-06-01T09:06:16;20.40;99.90
20041;DHT22;10181;48.072;9.884;2023-06-01T09:08:42;20.50;99.90
20041;DHT22;10181;48.072;9.884;2023-06-01T09:11:07;20.50;99.90
20041;DHT22;10181;48.072;9.884;2023-06-01T09:13:35;20.60;99.90
20041;DHT22;10181;48.072;9.884;2023-06-01T09:16:01;20.60;99.90
20041;DHT22;10181;48.072;9.884;2023-06-01T09:18:28;20.70;99.90
20041;DHT22;10181;48.072;9.884;2023-06-01T09:20:53;20.90;99.90
20041;DHT22;10181;48.072;9.884;2023-06-01T09:23:28;20.90;99.90
20041;DHT22;10181;48.072;9.884;2023-06-01T09:28:30;21.10;99.90
20041;DHT22;10181;48.072;9.884;2023-06-01T09:31:48;21.20;99.90
20041;DHT22;10181;48.072;9.884;2023-06-01T09:34:15;21.30;99.90
20041;DHT22;10181;48.072;9.884;2023-06-01T09:36:44;21.30;99.90
20041;DHT22;10181;48.072;9.884;2023-06-01T09:39:14;21.30;99.90
20041;DHT22;10181;48.072;9.884;2023-06-01T09:41:50;21.30;99.90
20041;DHT22;10181;48.072;9.884;2023-06-01T09:44:26;21.40;99.90
20041;DHT22;10181;48.072;9.884;2023-06-01T09:47:00;21.40;99.90
20041;DHT22;10181;48.072;9.884;2023-06-01T09:49:35;21.40;99.90
20041;DHT22;10181;48.072;9.884;2023-06-01T09:54:33;21.50;99.90
20041;DHT22;10181;48.072;9.884;2023-06-01T09:57:00;21.60;99.90
20041;DHT22;10181;48.072;9.884;2023-06-01T09:59:29;21.60;99.90
20041;DHT22;10181;48.072;9.884;2023-06-01T10:01:57;21.80;99.90
20041;DHT22;10181;48.072;9.884;2023-06-01T10:04:27;21.80;99.90
20041;DHT22;10181;48.072;9.884;2023-06-01T10:06:54;21.70;99.90
20041;DHT22;10181;48.072;9.884;2023-06-01T10:09:23;21.70;99.90
20041;DHT22;10181;48.072;9.884;2023-06-01T10:11:51;21.80;99.90
20041;DHT22;10181;48.072;9.884;2023-06-01T10:14:19;21.80;99.90
20041;DHT22;10181;48.072;9.884;2023-06-01T10:16:50;21.90;99.90
20041;DHT22;10181;48.072;9.884;2023-06-01T10:19:17;21.90;99.90
20041;DHT22;10181;48.072;9.884;2023-06-01T10:21:44;21.90;99.90
20041;DHT22;10181;48.072;9.884;2023-06-01T10:24:11;22.00;99.90
20041;DHT22;10181;48.072;9.884;2023-06-01T10:29:31;22.10;99.90
20041;DHT22;10181;48.072;9.884;2023-06-01T10:31:57;22.10;99.90
20041;DHT22;10181;48.072;9.884;2023-06-01T10:34:43;22.20;99.90
20041;DHT22;10181;48.072;9.884;2023-06-01T10:39:36;22.30;99.90
20041;DHT22;10181;48.072;9.884;2023-06-01T10:44:50;22.30;99.90
20041;DHT22;10181;48.072;9.884;2023-06-01T10:54:56;22.60;99.90
20041;DHT22;10181;48.072;9.884;2023-06-01T10:57:25;22.60;99.90
20041;DHT22;10181;48.072;9.884;2023-06-01T11:03:00;22.70;99.90
20041;DHT22;10181;48.072;9.884;2023-06-01T11:05:45;22.70;99.90
20041;DHT22;10181;48.072;9.884;2023-06-01T11:11:01;22.80;99.90
20041;DHT22;10181;48.072;9.884;2023-06-01T11:13:37;22.90;99.90
20041;DHT22;10181;48.072;9.884;2023-06-01T11:18:41;22.90;99.90
20041;DHT22;10181;48.072;9.884;2023-06-01T11:21:14;22.90;99.90
20041;DHT22;10181;48.072;9.884;2023-06-01T11:23:42;23.00;99.90
20041;DHT22;10181;48.072;9.884;2023-06-01T11:26:08;23.10;99.90
20041;DHT22;10181;48.072;9.884;2023-06-01T11:28:34;23.10;99.90
20041;DHT22;10181;48.072;9.884;2023-06-01T11:31:01;23.10;99.90
20041;DHT22;10181;48.072;9.884;2023-06-01T11:33:28;23.10;99.90
20041;DHT22;10181;48.072;9.884;2023-06-01T11:36:01;23.00;99.90
20041;DHT22;10181;48.072;9.884;2023-06-01T11:38:39;23.00;99.90
20041;DHT22;10181;48.072;9.884;2023-06-01T11:41:05;23.00;99.90
20041;DHT22;10181;48.072;9.884;2023-06-01T11:43:32;23.00;99.90
20041;DHT22;10181;48.072;9.884;2023-06-01T11:46:06;23.00;98.80
20041;DHT22;10181;48.072;9.884;2023-06-01T11:48:32;22.90;97.40
20041;DHT22;10181;48.072;9.884;2023-06-01T11:51:00;23.00;99.90
20041;DHT22;10181;48.072;9.884;2023-06-01T11:53:26;23.10;99.90
20041;DHT22;10181;48.072;9.884;2023-06-01T11:55:56;23.40;99.90
20041;DHT22;10181;48.072;9.884;2023-06-01T11:58:28;23.50;99.90
20041;DHT22;10181;48.072;9.884;2023-06-01T12:00:56;23.60;99.90
20041;DHT22;10181;48.072;9.884;2023-06-01T12:03:22;23.60;97.70
20041;DHT22;10181;48.072;9.884;2023-06-01T12:05:51;23.50;95.70
20041;DHT22;10181;48.072;9.884;2023-06-01T12:08:19;23.40;96.70
20041;DHT22;10181;48.072;9.884;2023-06-01T12:10:46;23.50;99.90
20041;DHT22;10181;48.072;9.884;2023-06-01T12:13:16;23.60;99.60
20041;DHT22;10181;48.072;9.884;2023-06-01T12:15:42;23.60;96.20
20041;DHT22;10181;48.072;9.884;2023-06-01T12:18:07;23.60;98.90
20041;DHT22;10181;48.072;9.884;2023-06-01T12:20:41;23.60;98.70
20041;DHT22;10181;48.072;9.884;2023-06-01T12:28:13;23.60;99.90
20041;DHT22;10181;48.072;9.884;2023-06-01T12:30:38;23.50;99.90
20041;DHT22;10181;48.072;9.884;2023-06-01T12:33:04;23.50;99.90
20041;DHT22;10181;48.072;9.884;2023-06-01T12:35:31;23.60;98.50
20041;DHT22;10181;48.072;9.884;2023-06-01T12:38:04;23.70;98.30
20041;DHT22;10181;48.072;9.884;2023-06-01T12:40:30;23.80;97.10
20041;DHT22;10181;48.072;9.884;2023-06-01T12:42:55;23.90;98.50
20041;DHT22;10181;48.072;9.884;2023-06-01T12:45:21;24.00;97.40
20041;DHT22;10181;48.072;9.884;2023-06-01T12:47:47;24.00;94.30
20041;DHT22;10181;48.072;9.884;2023-06-01T12:50:12;24.10;96.40
20041;DHT22;10181;48.072;9.884;2023-06-01T12:52:39;24.10;96.80
20041;DHT22;10181;48.072;9.884;2023-06-01T12:55:06;24.20;98.70
20041;DHT22;10181;48.072;9.884;2023-06-01T12:57:33;24.20;98.50
20041;DHT22;10181;48.072;9.884;2023-06-01T12:59:59;24.10;94.50
20041;DHT22;10181;48.072;9.884;2023-06-01T13:02:26;23.90;92.10
20041;DHT22;10181;48.072;9.884;2023-06-01T13:04:52;23.70;92.90
20041;DHT22;10181;48.072;9.884;2023-06-01T13:07:19;23.60;94.60
20041;DHT22;10181;48.072;9.884;2023-06-01T13:09:47;23.50;93.00
20041;DHT22;10181;48.072;9.884;2023-06-01T13:12:13;23.50;97.40
20041;DHT22;10181;48.072;9.884;2023-06-01T13:14:39;23.60;95.40
20041;DHT22;10181;48.072;9.884;2023-06-01T13:17:05;23.70;97.10
20041;DHT22;10181;48.072;9.884;2023-06-01T13:19:31;23.90;93.90
20041;DHT22;10181;48.072;9.884;2023-06-01T13:21:56;24.00;92.10
20041;DHT22;10181;48.072;9.884;2023-06-01T13:24:23;24.10;92.40
20041;DHT22;10181;48.072;9.884;2023-06-01T13:26:49;24.20;94.50
20041;DHT22;10181;48.072;9.884;2023-06-01T13:29:14;24.30;94.80
20041;DHT22;10181;48.072;9.884;2023-06-01T13:31:40;24.30;94.90
20041;DHT22;10181;48.072;9.884;2023-06-01T13:34:06;24.40;91.10
20041;DHT22;10181;48.072;9.884;2023-06-01T13:36:32;24.30;92.90
20041;DHT22;10181;48.072;9.884;2023-06-01T13:38:58;24.40;93.40
20041;DHT22;10181;48.072;9.884;2023-06-01T13:41:24;24.30;95.10
20041;DHT22;10181;48.072;9.884;2023-06-01T13:43:50;24.20;94.10
20041;DHT22;10181;48.072;9.884;2023-06-01T13:46:16;23.90;94.10
20041;DHT22;10181;48.072;9.884;2023-06-01T13:48:41;23.90;96.50
20041;DHT22;10181;48.072;9.884;2023-06-01T13:51:07;23.80;93.80
20041;DHT22;10181;48.072;9.884;2023-06-01T13:53:33;23.90;96.30
20041;DHT22;10181;48.072;9.884;2023-06-01T13:56:02;23.90;94.70
20041;DHT22;10181;48.072;9.884;2023-06-01T13:58:28;23.80;91.70
20041;DHT22;10181;48.072;9.884;2023-06-01T14:00:54;23.60;93.00
20041;DHT22;10181;48.072;9.884;2023-06-01T14:03:20;23.60;91.80
20041;DHT22;10181;48.072;9.884;2023-06-01T14:05:45;23.60;92.00
20041;DHT22;10181;48.072;9.884;2023-06-01T14:08:11;23.70;94.40
20041;DHT22;10181;48.072;9.884;2023-06-01T14:10:37;23.80;91.00
20041;DHT22;10181;48.072;9.884;2023-06-01T14:13:02;23.90;94.10
20041;DHT22;10181;48.072;9.884;2023-06-01T14:15:28;24.00;92.10
20041;DHT22;10181;48.072;9.884;2023-06-01T14:17:54;24.10;92.40
20041;DHT22;10181;48.072;9.884;2023-06-01T14:20:21;24.30;93.60
20041;DHT22;10181;48.072;9.884;2023-06-01T14:22:46;24.50;91.90
20041;DHT22;10181;48.072;9.884;2023-06-01T14:25:12;24.50;93.70
20041;DHT22;10181;48.072;9.884;2023-06-01T14:27:38;24.50;91.80
20041;DHT22;10181;48.072;9.884;2023-06-01T14:30:05;24.30;90.80
20041;DHT22;10181;48.072;9.884;2023-06-01T14:32:31;24.20;90.00
20041;DHT22;10181;48.072;9.884;2023-06-01T14:34:57;24.30;91.40
20041;DHT22;10181;48.072;9.884;2023-06-01T14:37:22;24.30;91.40
20041;DHT22;10181;48.072;9.884;2023-06-01T14:39:48;24.40;89.60
20041;DHT22;10181;48.072;9.884;2023-06-01T14:42:15;24.40;89.10
20041;DHT22;10181;48.072;9.884;2023-06-01T14:44:41;24.50;90.90
20041;DHT22;10181;48.072;9.884;2023-06-01T14:47:06;24.50;90.00
20041;DHT22;10181;48.072;9.884;2023-06-01T14:49:32;24.70;91.70
20041;DHT22;10181;48.072;9.884;2023-06-01T14:51:58;24.70;92.90
20041;DHT22;10181;48.072;9.884;2023-06-01T14:54:23;24.70;90.80
20041;DHT22;10181;48.072;9.884;2023-06-01T14:56:49;24.70;90.90
20041;DHT22;10181;48.072;9.884;2023-06-01T14:59:15;24.90;90.30
20041;DHT22;10181;48.072;9.884;2023-06-01T15:01:40;24.90;88.10
20041;DHT22;10181;48.072;9.884;2023-06-01T15:04:06;25.10;86.00
20041;DHT22;10181;48.072;9.884;2023-06-01T15:06:32;24.90;88.80
20041;DHT22;10181;48.072;9.884;2023-06-01T15:08:57;24.90;91.40
20041;DHT22;10181;48.072;9.884;2023-06-01T15:11:23;24.80;89.00
20041;DHT22;10181;48.072;9.884;2023-06-01T15:13:49;24.80;90.40
20041;DHT22;10181;48.072;9.884;2023-06-01T15:16:15;24.80;87.30
20041;DHT22;10181;48.072;9.884;2023-06-01T15:18:41;24.80;85.30
20041;DHT22;10181;48.072;9.884;2023-06-01T15:21:07;24.90;87.10
20041;DHT22;10181;48.072;9.884;2023-06-01T15:23:32;24.90;89.20
20041;DHT22;10181;48.072;9.884;2023-06-01T15:25:58;25.00;92.00
20041;DHT22;10181;48.072;9.884;2023-06-01T15:28:24;24.90;82.90
20041;DHT22;10181;48.072;9.884;2023-06-01T15:30:50;24.80;79.80
20041;DHT22;10181;48.072;9.884;2023-06-01T15:33:16;24.60;81.50
20041;DHT22;10181;48.072;9.884;2023-06-01T15:35:41;24.60;84.60
20041;DHT22;10181;48.072;9.884;2023-06-01T15:38:07;24.70;89.50
20041;DHT22;10181;48.072;9.884;2023-06-01T15:40:33;24.70;86.80
20041;DHT22;10181;48.072;9.884;2023-06-01T15:42:58;24.80;81.70
20041;DHT22;10181;48.072;9.884;2023-06-01T15:45:24;24.70;77.80
20041;DHT22;10181;48.072;9.884;2023-06-01T15:47:50;24.50;81.30
20041;DHT22;10181;48.072;9.884;2023-06-01T15:50:16;24.50;79.40
20041;DHT22;10181;48.072;9.884;2023-06-01T15:52:41;24.60;83.10
20041;DHT22;10181;48.072;9.884;2023-06-01T15:55:07;24.60;81.00
20041;DHT22;10181;48.072;9.884;2023-06-01T15:57:33;24.60;79.20
20041;DHT22;10181;48.072;9.884;2023-06-01T15:59:59;24.50;81.40
20041;DHT22;10181;48.072;9.884;2023-06-01T16:02:25;24.50;76.90
20041;DHT22;10181;48.072;9.884;2023-06-01T16:04:50;24.40;78.00
20041;DHT22;10181;48.072;9.884;2023-06-01T16:07:16;24.40;82.80
20041;DHT22;10181;48.072;9.884;2023-06-01T16:09:41;24.40;87.10
20041;DHT22;10181;48.072;9.884;2023-06-01T16:12:07;24.50;84.20
20041;DHT22;10181;48.072;9.884;2023-06-01T16:14:33;24.70;78.30